sensor_id;sensor_type;location;lat;lon;timestamp;temperature;humidity
10314;DHT22;5202;49.138;10.090;2023-07-22T00:00:51;12.80;99.90
10314;DHT22;5202;49.138;10.090;2023-07-22T00:03:19;12.80;99.90
10314;DHT22;5202;49.138;10.090;2023-07-22T00:06:02;12.80;99.90
10314;DHT22;5202;49.138;10.090;2023-07-22T00:08:32;12.70;99.90
10314;DHT22;5202;49.138;10.090;2023-07-22T00:11:01;12.70;99.90
10314;DHT22;5202;49.138;10.090;2023-07-22T00:13:31;12.70;99.90
10314;DHT22;5202;49.138;10.090;2023-07-22T00:16:01;12.70;99.90
10314;DHT22;5202;49.138;10.090;2023-07-22T00:18:31;12.70;99.90
10314;DHT22;5202;49.138;10.090;2023-07-22T00:20:59;12.70;99.90
10314;DHT22;5202;49.138;10.090;2023-07-22T00:23:30;12.60;99.90
10314;DHT22;5202;49.138;10.090;2023-07-22T00:25:58;12.60;99.90
10314;DHT22;5202;49.138;10.090;2023-07-22T00:28:26;12.60;99.90
10314;DHT22;5202;49.138;10.090;2023-07-22T00:30:56;12.50;99.90
10314;DHT22;5202;49.138;10.090;2023-07-22T00:33:25;12.40;99.90
10314;DHT22;5202;49.138;10.090;2023-07-22T00:35:54;12.40;99.90
10314;DHT22;5202;49.138;10.090;2023-07-22T00:38:22;12.40;99.90
10314;DHT22;5202;49.138;10.090;2023-07-22T00:40:50;12.40;99.90
10314;DHT22;5202;49.138;10.090;2023-07-22T00:43:19;12.40;99.90
10314;DHT22;5202;49.138;10.090;2023-07-22T00:45:47;12.30;99.90
10314;DHT22;5202;49.138;10.090;2023-07-22T00:48:17;12.40;99.90
10314;DHT22;5202;49.138;10.090;2023-07-22T00:50:46;12.40;99.90
10314;DHT22;5202;49.138;10.090;2023-07-22T00:53:15;12.40;99.90
10314;DHT22;5202;49.138;10.090;2023-07-22T00:55:45;12.40;99.90
10314;DHT22;5202;49.138;10.090;2023-07-22T00:58:13;12.30;99.90
10314;DHT22;5202;49.138;10.090;2023-07-22T01:00:43;12.20;99.90
10314;DHT22;5202;49.138;10.090;2023-07-22T01:03:11;12.20;99.90
10314;DHT22;5202;49.138;10.090;2023-07-22T01:05:41;12.20;99.90
10314;DHT22;5202;49.138;10.090;2023-07-22T01:08:10;12.20;99.90
10314;DHT22;5202;49.138;10.090;2023-07-22T01:10:38;12.20;99.90
10314;DHT22;5202;49.138;10.090;2023-07-22T01:13:07;12.20;99.90
10314;DHT22;5202;49.138;10.090;2023-07-22T01:15:36;12.20;99.90
10314;DHT22;5202;49.138;10.090;2023-07-22T01:18:06;12.20;99.90
10314;DHT22;5202;49.138;10.090;2023-07-22T01:20:35;12.20;99.90
10314;DHT22;5202;49.138;10.090;2023-07-22T01:23:06;12.10;99.90
10314;DHT22;5202;49.138;10.090;2023-07-22T01:25:35;12.10;99.90
10314;DHT22;5202;49.138;10.090;2023-07-22T01:28:03;12.20;99.90
10314;DHT22;5202;49.138;10.090;2023-07-22T01:30:37;12.10;99.90
10314;DHT22;5202;49.138;10.090;2023-07-22T01:33:06;12.10;99.90
10314;DHT22;5202;49.138;10.090;2023-07-22T01:35:35;12.10;99.90
10314;DHT22;5202;49.138;10.090;2023-07-22T01:38:03;12.10;99.90
10314;DHT22;5202;49.138;10.090;2023-07-22T01:40:33;12.10;99.90
10314;DHT22;5202;49.138;10.090;2023-07-22T01:43:01;12.10;99.90
10314;DHT22;5202;49.138;10.090;2023-07-22T01:45:30;12.10;99.90
10314;DHT22;5202;49.138;10.090;2023-07-22T01:47:59;12.10;99.90
10314;DHT22;5202;49.138;10.090;2023-07-22T01:50:28;12.10;99.90
10314;DHT22;5202;49.138;10.090;2023-07-22T01:52:56;12.00;99.90
10314;DHT22;5202;49.138;10.090;2023-07-22T01:55:24;12.00;99.90
10314;DHT22;5202;49.138;10.090;2023-07-22T01:57:55;11.90;99.90
10314;DHT22;5202;49.138;10.090;2023-07-22T02:00:23;11.90;99.90
10314;DHT22;5202;49.138;10.090;2023-07-22T02:02:52;11.80;99.90
10314;DHT22;5202;49.138;10.090;2023-07-22T02:05:20;11.80;99.90
10314;DHT22;5202;49.138;10.090;2023-07-22T02:07:51;11.70;99.90
10314;DHT22;5202;49.138;10.090;2023-07-22T02:10:22;11.70;99.90
10314;DHT22;5202;49.138;10.090;2023-07-22T02:12:51;11.70;99.90
10314;DHT22;5202;49.138;10.090;2023-07-22T02:15:20;11.70;99.90
10314;DHT22;5202;49.138;10.090;2023-07-22T02:17:51;11.70;99.90
10314;DHT22;5202;49.138;10.090;2023-07-22T02:20:22;11.60;99.90
10314;DHT22;5202;49.138;10.090;2023-07-22T02:22:50;11.60;99.90
10314;DHT22;5202;49.138;10.090;2023-07-22T02:25:19;11.50;99.90
10314;DHT22;5202;49.138;10.090;2023-07-22T02:27:47;11.60;99.90
10314;DHT22;5202;49.138;10.090;2023-07-22T02:30:16;11.60;99.90
10314;DHT22;5202;49.138;10.090;2023-07-22T02:32:45;11.60;99.90
10314;DHT22;5202;49.138;10.090;2023-07-22T02:35:14;11.50;99.90
10314;DHT22;5202;49.138;10.090;2023-07-22T02:37:43;11.50;99.90
10314;DHT22;5202;49.138;10.090;2023-07-22T02:40:11;11.50;99.90
10314;DHT22;5202;49.138;10.090;2023-07-22T02:42:40;11.50;99.90
10314;DHT22;5202;49.138;10.090;2023-07-22T02:45:09;11.50;99.90
10314;DHT22;5202;49.138;10.090;2023-07-22T02:47:38;11.50;99.90
10314;DHT22;5202;49.138;10.090;2023-07-22T02:50:08;11.50;99.90
10314;DHT22;5202;49.138;10.090;2023-07-22T02:52:37;11.40;99.90
10314;DHT22;5202;49.138;10.090;2023-07-22T02:55:08;11.50;99.90
10314;DHT22;5202;49.138;10.090;2023-07-22T02:57:39;11.40;99.90
10314;DHT22;5202;49.138;10.090;2023-07-22T03:00:09;11.40;99.90
10314;DHT22;5202;49.138;10.090;2023-07-22T03:02:39;11.40;99.90
10314;DHT22;5202;49.138;10.090;2023-07-22T03:05:09;11.40;99.90
10314;DHT22;5202;49.138;10.090;2023-07-22T03:07:38;11.40;99.90
10314;DHT22;5202;49.138;10.090;2023-07-22T03:10:08;11.40;99.90
10314;DHT22;5202;49.138;10.090;2023-07-22T03:12:38;11.40;99.90
10314;DHT22;5202;49.138;10.090;2023-07-22T03:15:07;11.40;99.90
10314;DHT22;5202;49.138;10.090;2023-07-22T03:17:37;11.30;99.90
10314;DHT22;5202;49.138;10.090;2023-07-22T03:20:11;11.30;99.90
10314;DHT22;5202;49.138;10.090;2023-07-22T03:22:41;11.30;99.90
10314;DHT22;5202;49.138;10.090;2023-07-22T03:25:11;11.30;99.90
10314;DHT22;5202;49.138;10.090;2023-07-22T03:27:40;11.30;99.90
10314;DHT22;5202;49.138;10.090;2023-07-22T03:30:13;11.20;99.90
10314;DHT22;5202;49.138;10.090;2023-07-22T03:32:43;11.20;99.90
10314;DHT22;5202;49.138;10.090;2023-07-22T03:35:16;11.20;99.90
10314;DHT22;5202;49.138;10.090;2023-07-22T03:37:46;11.20;99.90
10314;DHT22;5202;49.138;10.090;2023-07-22T03:40:14;11.20;99.90
10314;DHT22;5202;49.138;10.090;2023-07-22T03:42:47;11.20;99.90
10314;DHT22;5202;49.138;10.090;2023-07-22T03:45:16;11.20;99.90
10314;DHT22;5202;49.138;10.090;2023-07-22T03:47:45;11.20;99.90
10314;DHT22;5202;49.138;10.090;2023-07-22T03:50:15;11.20;99.90
10314;DHT22;5202;49.138;10.090;2023-07-22T03:52:44;11.20;99.90
10314;DHT22;5202;49.138;10.090;2023-07-22T03:55:12;11.20;99.90
10314;DHT22;5202;49.138;10.090;2023-07-22T03:57:41;11.20;99.90
10314;DHT22;5202;49.138;10.090;2023-07-22T04:00:10;11.20;99.90
10314;DHT22;5202;49.138;10.090;2023-07-22T04:02:40;11.20;99.90
10314;DHT22;5202;49.138;10.090;2023-07-22T04:05:18;11.20;99.90
10314;DHT22;5202;49.138;10.090;2023-07-22T04:07:47;11.20;99.90
10314;DHT22;5202;49.138;10.090;2023-07-22T04:10:15;11.30;99.90
10314;DHT22;5202;49.138;10.090;2023-07-22T04:12:43;11.30;99.90
10314;DHT22;5202;49.138;10.090;2023-07-22T04:15:11;11.30;99.90
10314;DHT22;5202;49.138;10.090;2023-07-22T04:17:39;11.30;99.90
10314;DHT22;5202;49.138;10.090;2023-07-22T04:20:09;11.30;99.90
10314;DHT22;5202;49.138;10.090;2023-07-22T04:22:39;11.40;99.90
10314;DHT22;5202;49.138;10.090;2023-07-22T04:25:08;11.40;99.90
10314;DHT22;5202;49.138;10.090;2023-07-22T04:27:37;11.40;99.90
10314;DHT22;5202;49.138;10.090;2023-07-22T04:30:06;11.50;99.90
10314;DHT22;5202;49.138;10.090;2023-07-22T04:32:37;11.60;99.90
10314;DHT22;5202;49.138;10.090;2023-07-22T04:35:07;11.70;99.90
10314;DHT22;5202;49.138;10.090;2023-07-22T04:37:38;11.80;99.90
10314;DHT22;5202;49.138;10.090;2023-07-22T04:40:07;11.90;99.90
10314;DHT22;5202;49.138;10.090;2023-07-22T04:42:41;12.00;99.90
10314;DHT22;5202;49.138;10.090;2023-07-22T04:45:10;12.10;99.90
10314;DHT22;5202;49.138;10.090;2023-07-22T04:47:39;12.20;99.90
10314;DHT22;5202;49.138;10.090;2023-07-22T04:50:08;12.30;99.90
10314;DHT22;5202;49.138;10.090;2023-07-22T04:52:38;12.40;99.90
10314;DHT22;5202;49.138;10.090;2023-07-22T04:55:08;12.40;99.90
10314;DHT22;5202;49.138;10.090;2023-07-22T04:57:39;12.50;99.90
10314;DHT22;5202;49.138;10.090;2023-07-22T05:00:08;12.60;99.90
10314;DHT22;5202;49.138;10.090;2023-07-22T05:02:41;12.60;99.90
10314;DHT22;5202;49.138;10.090;2023-07-22T05:05:11;12.70;99.90
10314;DHT22;5202;49.138;10.090;2023-07-22T05:07:40;12.80;99.90
10314;DHT22;5202;49.138;10.090;2023-07-22T05:10:09;12.80;99.90
10314;DHT22;5202;49.138;10.090;2023-07-22T05:12:39;12.90;99.90
10314;DHT22;5202;49.138;10.090;2023-07-22T05:15:09;13.00;99.90
10314;DHT22;5202;49.138;10.090;2023-07-22T05:17:38;13.10;99.90
10314;DHT22;5202;49.138;10.090;2023-07-22T05:20:07;13.10;99.90
10314;DHT22;5202;49.138;10.090;2023-07-22T05:22:37;13.20;99.90
10314;DHT22;5202;49.138;10.090;2023-07-22T05:25:08;13.30;99.90
10314;DHT22;5202;49.138;10.090;2023-07-22T05:27:37;13.30;99.90
10314;DHT22;5202;49.138;10.090;2023-07-22T05:30:07;13.40;99.90
10314;DHT22;5202;49.138;10.090;2023-07-22T05:32:52;13.50;99.90
10314;DHT22;5202;49.138;10.090;2023-07-22T05:35:20;13.60;99.90
10314;DHT22;5202;49.138;10.090;2023-07-22T05:37:49;13.70;99.90
10314;DHT22;5202;49.138;10.090;2023-07-22T05:40:19;13.90;99.90
10314;DHT22;5202;49.138;10.090;2023-07-22T05:42:48;14.00;99.90
10314;DHT22;5202;49.138;10.090;2023-07-22T05:45:16;14.10;99.90
10314;DHT22;5202;49.138;10.090;2023-07-22T05:47:45;14.20;99.90
10314;DHT22;5202;49.138;10.090;2023-07-22T05:50:13;14.20;99.90
10314;DHT22;5202;49.138;10.090;2023-07-22T05:52:41;14.30;99.90
10314;DHT22;5202;49.138;10.090;2023-07-22T05:55:10;14.40;99.90
10314;DHT22;5202;49.138;10.090;2023-07-22T05:57:40;14.50;99.90
10314;DHT22;5202;49.138;10.090;2023-07-22T06:00:10;14.50;99.90
10314;DHT22;5202;49.138;10.090;2023-07-22T06:02:40;14.60;99.90
10314;DHT22;5202;49.138;10.090;2023-07-22T06:05:09;14.70;99.90
10314;DHT22;5202;49.138;10.090;2023-07-22T06:07:37;14.70;99.90
10314;DHT22;5202;49.138;10.090;2023-07-22T06:10:06;14.80;99.90
10314;DHT22;5202;49.138;10.090;2023-07-22T06:12:36;14.80;99.90
10314;DHT22;5202;49.138;10.090;2023-07-22T06:15:07;15.00;99.90
10314;DHT22;5202;49.138;10.090;2023-07-22T06:17:36;15.10;99.90
10314;DHT22;5202;49.138;10.090;2023-07-22T06:20:06;15.20;99.90
10314;DHT22;5202;49.138;10.090;2023-07-22T06:22:35;15.40;99.90
10314;DHT22;5202;49.138;10.090;2023-07-22T06:25:04;15.50;99.90
10314;DHT22;5202;49.138;10.090;2023-07-22T06:27:33;15.60;99.90
10314;DHT22;5202;49.138;10.090;2023-07-22T06:30:02;15.70;99.90
10314;DHT22;5202;49.138;10.090;2023-07-22T06:32:34;15.90;99.90
10314;DHT22;5202;49.138;10.090;2023-07-22T06:35:03;16.00;99.90
10314;DHT22;5202;49.138;10.090;2023-07-22T06:37:32;16.10;99.90
10314;DHT22;5202;49.138;10.090;2023-07-22T06:40:00;16.20;99.90
10314;DHT22;5202;49.138;10.090;2023-07-22T06:42:30;16.30;99.90
10314;DHT22;5202;49.138;10.090;2023-07-22T06:44:59;16.40;99.90
10314;DHT22;5202;49.138;10.090;2023-07-22T06:47:27;16.50;99.90
10314;DHT22;5202;49.138;10.090;2023-07-22T06:49:57;16.60;99.90
10314;DHT22;5202;49.138;10.090;2023-07-22T06:52:26;16.70;99.90
10314;DHT22;5202;49.138;10.090;2023-07-22T06:54:55;16.90;99.90
10314;DHT22;5202;49.138;10.090;2023-07-22T06:57:23;16.80;99.90
10314;DHT22;5202;49.138;10.090;2023-07-22T06:59:53;16.90;99.90
10314;DHT22;5202;49.138;10.090;2023-07-22T07:02:22;17.00;99.90
10314;DHT22;5202;49.138;10.090;2023-07-22T07:04:50;17.10;99.90
10314;DHT22;5202;49.138;10.090;2023-07-22T07:07:20;17.20;99.90
10314;DHT22;5202;49.138;10.090;2023-07-22T07:09:48;17.30;99.90
10314;DHT22;5202;49.138;10.090;2023-07-22T07:12:19;17.50;99.90
10314;DHT22;5202;49.138;10.090;2023-07-22T07:14:50;17.60;99.90
10314;DHT22;5202;49.138;10.090;2023-07-22T07:17:18;17.70;99.90
10314;DHT22;5202;49.138;10.090;2023-07-22T07:19:47;17.80;99.90
10314;DHT22;5202;49.138;10.090;2023-07-22T07:22:15;18.00;99.90
10314;DHT22;5202;49.138;10.090;2023-07-22T07:24:45;18.00;99.90
10314;DHT22;5202;49.138;10.090;2023-07-22T07:27:13;18.20;99.70
10314;DHT22;5202;49.138;10.090;2023-07-22T07:29:42;18.10;99.00
10314;DHT22;5202;49.138;10.090;2023-07-22T07:32:21;18.20;99.10
10314;DHT22;5202;49.138;10.090;2023-07-22T07:34:51;18.30;98.80
10314;DHT22;5202;49.138;10.090;2023-07-22T07:37:19;18.50;99.10
10314;DHT22;5202;49.138;10.090;2023-07-22T07:39:49;18.50;98.60
10314;DHT22;5202;49.138;10.090;2023-07-22T07:42:17;18.50;96.90
10314;DHT22;5202;49.138;10.090;2023-07-22T07:44:46;18.40;97.00
10314;DHT22;5202;49.138;10.090;2023-07-22T07:47:15;18.50;97.50
10314;DHT22;5202;49.138;10.090;2023-07-22T07:49:43;18.50;96.70
10314;DHT22;5202;49.138;10.090;2023-07-22T07:52:11;18.60;97.10
10314;DHT22;5202;49.138;10.090;2023-07-22T07:54:40;18.70;96.70
10314;DHT22;5202;49.138;10.090;2023-07-22T07:57:10;18.80;96.90
10314;DHT22;5202;49.138;10.090;2023-07-22T07:59:38;18.80;96.30
10314;DHT22;5202;49.138;10.090;2023-07-22T08:02:06;18.80;96.50
10314;DHT22;5202;49.138;10.090;2023-07-22T08:04:37;19.00;96.50
10314;DHT22;5202;49.138;10.090;2023-07-22T08:07:06;19.20;97.00
10314;DHT22;5202;49.138;10.090;2023-07-22T08:09:35;19.40;96.60
10314;DHT22;5202;49.138;10.090;2023-07-22T08:12:04;19.60;95.70
10314;DHT22;5202;49.138;10.090;2023-07-22T08:14:34;19.60;94.30
10314;DHT22;5202;49.138;10.090;2023-07-22T08:17:03;19.70;95.10
10314;DHT22;5202;49.138;10.090;2023-07-22T08:19:31;19.80;94.40
10314;DHT22;5202;49.138;10.090;2023-07-22T08:22:00;19.70;94.60
10314;DHT22;5202;49.138;10.090;2023-07-22T08:24:28;19.80;95.00
10314;DHT22;5202;49.138;10.090;2023-07-22T08:26:57;19.90;94.40
10314;DHT22;5202;49.138;10.090;2023-07-22T08:29:25;20.10;94.70
10314;DHT22;5202;49.138;10.090;2023-07-22T08:31:55;20.30;94.80
10314;DHT22;5202;49.138;10.090;2023-07-22T08:34:23;20.30;93.20
10314;DHT22;5202;49.138;10.090;2023-07-22T08:36:52;20.30;91.70
10314;DHT22;5202;49.138;10.090;2023-07-22T08:39:21;20.20;91.10
10314;DHT22;5202;49.138;10.090;2023-07-22T08:41:50;20.30;90.10
10314;DHT22;5202;49.138;10.090;2023-07-22T08:44:19;20.20;89.60
10314;DHT22;5202;49.138;10.090;2023-07-22T08:46:56;20.20;90.00
10314;DHT22;5202;49.138;10.090;2023-07-22T08:49:26;20.20;89.80
10314;DHT22;5202;49.138;10.090;2023-07-22T08:51:56;20.20;89.50
10314;DHT22;5202;49.138;10.090;2023-07-22T08:54:24;20.20;89.40
10314;DHT22;5202;49.138;10.090;2023-07-22T08:56:53;20.20;88.80
10314;DHT22;5202;49.138;10.090;2023-07-22T08:59:24;20.20;89.80
10314;DHT22;5202;49.138;10.090;2023-07-22T09:01:53;20.20;90.00
10314;DHT22;5202;49.138;10.090;2023-07-22T09:04:24;20.20;89.10
10314;DHT22;5202;49.138;10.090;2023-07-22T09:06:53;20.30;89.70
10314;DHT22;5202;49.138;10.090;2023-07-22T09:09:24;20.40;88.80
10314;DHT22;5202;49.138;10.090;2023-07-22T09:11:53;20.50;87.50
10314;DHT22;5202;49.138;10.090;2023-07-22T09:14:22;20.60;87.90
10314;DHT22;5202;49.138;10.090;2023-07-22T09:17:04;20.60;84.30
10314;DHT22;5202;49.138;10.090;2023-07-22T09:19:32;20.60;82.80
10314;DHT22;5202;49.138;10.090;2023-07-22T09:22:01;20.50;81.40
10314;DHT22;5202;49.138;10.090;2023-07-22T09:24:32;20.30;83.40
10314;DHT22;5202;49.138;10.090;2023-07-22T09:27:01;20.30;83.30
10314;DHT22;5202;49.138;10.090;2023-07-22T09:29:33;20.40;82.10
10314;DHT22;5202;49.138;10.090;2023-07-22T09:32:05;20.60;81.30
10314;DHT22;5202;49.138;10.090;2023-07-22T09:34:34;20.70;79.80
10314;DHT22;5202;49.138;10.090;2023-07-22T09:37:03;21.00;79.10
10314;DHT22;5202;49.138;10.090;2023-07-22T09:39:32;21.10;77.00
10314;DHT22;5202;49.138;10.090;2023-07-22T09:42:03;21.20;78.70
10314;DHT22;5202;49.138;10.090;2023-07-22T09:44:33;21.20;77.80
10314;DHT22;5202;49.138;10.090;2023-07-22T09:47:07;21.30;78.30
10314;DHT22;5202;49.138;10.090;2023-07-22T09:49:40;21.30;74.70
10314;DHT22;5202;49.138;10.090;2023-07-22T09:52:10;21.50;76.50
10314;DHT22;5202;49.138;10.090;2023-07-22T09:54:46;21.50;75.10
10314;DHT22;5202;49.138;10.090;2023-07-22T09:57:17;21.50;74.70
10314;DHT22;5202;49.138;10.090;2023-07-22T09:59:48;21.50;75.60
10314;DHT22;5202;49.138;10.090;2023-07-22T10:02:20;21.70;73.30
10314;DHT22;5202;49.138;10.090;2023-07-22T10:04:51;21.80;71.90
10314;DHT22;5202;49.138;10.090;2023-07-22T10:07:21;21.70;71.60
10314;DHT22;5202;49.138;10.090;2023-07-22T10:09:52;21.80;72.10
10314;DHT22;5202;49.138;10.090;2023-07-22T10:12:23;21.90;72.70
10314;DHT22;5202;49.138;10.090;2023-07-22T10:14:53;22.10;71.30
10314;DHT22;5202;49.138;10.090;2023-07-22T10:17:22;22.10;71.60
10314;DHT22;5202;49.138;10.090;2023-07-22T10:19:52;22.00;71.00
10314;DHT22;5202;49.138;10.090;2023-07-22T10:22:21;21.90;71.10
10314;DHT22;5202;49.138;10.090;2023-07-22T10:24:49;22.00;73.90
10314;DHT22;5202;49.138;10.090;2023-07-22T10:27:18;22.00;75.80
10314;DHT22;5202;49.138;10.090;2023-07-22T10:29:46;21.70;76.40
10314;DHT22;5202;49.138;10.090;2023-07-22T10:32:15;21.40;76.90
10314;DHT22;5202;49.138;10.090;2023-07-22T10:34:45;21.50;77.70
10314;DHT22;5202;49.138;10.090;2023-07-22T10:37:17;21.70;76.40
10314;DHT22;5202;49.138;10.090;2023-07-22T10:39:46;21.70;75.20
10314;DHT22;5202;49.138;10.090;2023-07-22T10:42:24;21.60;74.60
10314;DHT22;5202;49.138;10.090;2023-07-22T10:44:53;21.70;74.40
10314;DHT22;5202;49.138;10.090;2023-07-22T10:47:35;21.70;74.80
10314;DHT22;5202;49.138;10.090;2023-07-22T10:50:09;21.60;73.20
10314;DHT22;5202;49.138;10.090;2023-07-22T10:52:39;21.60;73.30
10314;DHT22;5202;49.138;10.090;2023-07-22T10:55:16;21.90;74.30
10314;DHT22;5202;49.138;10.090;2023-07-22T10:57:49;22.10;71.60
10314;DHT22;5202;49.138;10.090;2023-07-22T11:00:20;22.00;71.30
10314;DHT22;5202;49.138;10.090;2023-07-22T11:03:10;21.90;70.80
10314;DHT22;5202;49.138;10.090;2023-07-22T11:05:50;21.90;67.70
10314;DHT22;5202;49.138;10.090;2023-07-22T11:08:36;22.10;69.70
10314;DHT22;5202;49.138;10.090;2023-07-22T11:11:06;22.30;71.30
10314;DHT22;5202;49.138;10.090;2023-07-22T11:13:37;22.50;70.40
10314;DHT22;5202;49.138;10.090;2023-07-22T11:16:10;22.70;67.70
10314;DHT22;5202;49.138;10.090;2023-07-22T11:18:40;22.70;66.60
10314;DHT22;5202;49.138;10.090;2023-07-22T11:21:12;22.70;66.00
10314;DHT22;5202;49.138;10.090;2023-07-22T11:23:40;22.70;65.00
10314;DHT22;5202;49.138;10.090;2023-07-22T11:26:08;22.80;65.70
10314;DHT22;5202;49.138;10.090;2023-07-22T11:28:37;22.80;65.90
10314;DHT22;5202;49.138;10.090;2023-07-22T11:31:08;22.70;65.30
10314;DHT22;5202;49.138;10.090;2023-07-22T11:33:39;22.60;65.90
10314;DHT22;5202;49.138;10.090;2023-07-22T11:36:11;22.70;66.60
10314;DHT22;5202;49.138;10.090;2023-07-22T11:38:40;22.80;65.50
10314;DHT22;5202;49.138;10.090;2023-07-22T11:41:08;22.60;66.10
10314;DHT22;5202;49.138;10.090;2023-07-22T11:43:38;22.60;65.80
10314;DHT22;5202;49.138;10.090;2023-07-22T11:46:06;22.70;64.70
10314;DHT22;5202;49.138;10.090;2023-07-22T11:48:35;22.80;63.60
10314;DHT22;5202;49.138;10.090;2023-07-22T11:51:04;22.60;63.40
10314;DHT22;5202;49.138;10.090;2023-07-22T11:53:36;22.80;64.60
10314;DHT22;5202;49.138;10.090;2023-07-22T11:56:05;22.80;63.20
10314;DHT22;5202;49.138;10.090;2023-07-22T11:58:33;23.00;63.40
10314;DHT22;5202;49.138;10.090;2023-07-22T12:01:03;23.20;63.80
10314;DHT22;5202;49.138;10.090;2023-07-22T12:03:32;23.30;64.30
10314;DHT22;5202;49.138;10.090;2023-07-22T12:06:01;23.30;64.20
10314;DHT22;5202;49.138;10.090;2023-07-22T12:08:31;23.40;65.00
10314;DHT22;5202;49.138;10.090;2023-07-22T12:11:00;23.40;64.40
10314;DHT22;5202;49.138;10.090;2023-07-22T12:13:29;23.30;64.60
10314;DHT22;5202;49.138;10.090;2023-07-22T12:16:04;23.30;64.30
10314;DHT22;5202;49.138;10.090;2023-07-22T12:18:43;23.30;65.40
10314;DHT22;5202;49.138;10.090;2023-07-22T12:21:12;23.40;65.40
10314;DHT22;5202;49.138;10.090;2023-07-22T12:23:41;23.30;64.70
10314;DHT22;5202;49.138;10.090;2023-07-22T12:26:11;23.30;64.30
10314;DHT22;5202;49.138;10.090;2023-07-22T12:28:40;23.20;64.50
10314;DHT22;5202;49.138;10.090;2023-07-22T12:31:08;23.20;65.20
10314;DHT22;5202;49.138;10.090;2023-07-22T12:33:37;23.00;65.20
10314;DHT22;5202;49.138;10.090;2023-07-22T12:36:06;22.80;65.80
10314;DHT22;5202;49.138;10.090;2023-07-22T12:38:34;22.70;65.50
10314;DHT22;5202;49.138;10.090;2023-07-22T12:41:03;22.70;65.70
10314;DHT22;5202;49.138;10.090;2023-07-22T12:43:33;22.60;66.40
10314;DHT22;5202;49.138;10.090;2023-07-22T12:46:01;22.60;67.00
10314;DHT22;5202;49.138;10.090;2023-07-22T12:48:29;22.80;67.20
10314;DHT22;5202;49.138;10.090;2023-07-22T12:50:58;23.10;66.40
10314;DHT22;5202;49.138;10.090;2023-07-22T12:53:28;23.30;66.20
10314;DHT22;5202;49.138;10.090;2023-07-22T12:55:58;23.50;65.80
10314;DHT22;5202;49.138;10.090;2023-07-22T12:58:29;23.80;66.00
10314;DHT22;5202;49.138;10.090;2023-07-22T13:01:00;24.20;64.20
10314;DHT22;5202;49.138;10.090;2023-07-22T13:03:29;24.20;64.20
10314;DHT22;5202;49.138;10.090;2023-07-22T13:05:57;24.30;63.70
10314;DHT22;5202;49.138;10.090;2023-07-22T13:08:25;24.30;65.30
10314;DHT22;5202;49.138;10.090;2023-07-22T13:10:54;24.40;63.20
10314;DHT22;5202;49.138;10.090;2023-07-22T13:13:22;24.10;62.80
10314;DHT22;5202;49.138;10.090;2023-07-22T13:15:50;23.80;63.60
10314;DHT22;5202;49.138;10.090;2023-07-22T13:18:21;23.50;64.20
10314;DHT22;5202;49.138;10.090;2023-07-22T13:20:50;23.50;64.20
10314;DHT22;5202;49.138;10.090;2023-07-22T13:23:18;23.60;64.50
10314;DHT22;5202;49.138;10.090;2023-07-22T13:25:46;23.80;64.20
10314;DHT22;5202;49.138;10.090;2023-07-22T13:28:15;23.90;63.10
10314;DHT22;5202;49.138;10.090;2023-07-22T13:30:43;24.00;64.40
10314;DHT22;5202;49.138;10.090;2023-07-22T13:33:12;24.20;63.00
10314;DHT22;5202;49.138;10.090;2023-07-22T13:35:41;24.30;63.60
10314;DHT22;5202;49.138;10.090;2023-07-22T13:38:09;24.40;62.90
10314;DHT22;5202;49.138;10.090;2023-07-22T13:40:38;24.30;62.20
10314;DHT22;5202;49.138;10.090;2023-07-22T13:43:07;24.20;61.40
10314;DHT22;5202;49.138;10.090;2023-07-22T13:45:36;24.10;61.20
10314;DHT22;5202;49.138;10.090;2023-07-22T13:48:04;24.00;61.90
10314;DHT22;5202;49.138;10.090;2023-07-22T13:50:33;24.10;62.40
10314;DHT22;5202;49.138;10.090;2023-07-22T13:53:05;24.10;61.50
10314;DHT22;5202;49.138;10.090;2023-07-22T13:55:33;23.90;61.40
10314;DHT22;5202;49.138;10.090;2023-07-22T13:58:01;23.70;61.60
10314;DHT22;5202;49.138;10.090;2023-07-22T14:00:30;23.70;62.60
10314;DHT22;5202;49.138;10.090;2023-07-22T14:02:58;23.70;62.20
10314;DHT22;5202;49.138;10.090;2023-07-22T14:05:26;23.90;62.00
10314;DHT22;5202;49.138;10.090;2023-07-22T14:07:55;24.30;62.40
10314;DHT22;5202;49.138;10.090;2023-07-22T14:10:25;24.70;61.60
10314;DHT22;5202;49.138;10.090;2023-07-22T14:12:53;24.80;61.50
10314;DHT22;5202;49.138;10.090;2023-07-22T14:15:21;24.70;60.20
10314;DHT22;5202;49.138;10.090;2023-07-22T14:17:50;24.70;61.30
10314;DHT22;5202;49.138;10.090;2023-07-22T14:20:18;24.80;60.00
10314;DHT22;5202;49.138;10.090;2023-07-22T14:22:47;24.90;61.50
10314;DHT22;5202;49.138;10.090;2023-07-22T14:25:16;24.80;60.60
10314;DHT22;5202;49.138;10.090;2023-07-22T14:27:47;24.60;60.70
10314;DHT22;5202;49.138;10.090;2023-07-22T14:30:15;24.60;59.60
10314;DHT22;5202;49.138;10.090;2023-07-22T14:32:43;24.60;59.20
10314;DHT22;5202;49.138;10.090;2023-07-22T14:35:12;24.70;59.70
10314;DHT22;5202;49.138;10.090;2023-07-22T14:37:41;24.90;60.00
10314;DHT22;5202;49.138;10.090;2023-07-22T14:40:10;25.10;60.20
10314;DHT22;5202;49.138;10.090;2023-07-22T14:42:39;25.20;58.90
10314;DHT22;5202;49.138;10.090;2023-07-22T14:45:09;24.90;58.40
10314;DHT22;5202;49.138;10.090;2023-07-22T14:47:37;24.80;59.00
10314;DHT22;5202;49.138;10.090;2023-07-22T14:50:06;24.60;59.30
10314;DHT22;5202;49.138;10.090;2023-07-22T14:52:35;24.50;59.50
10314;DHT22;5202;49.138;10.090;2023-07-22T14:55:04;24.70;60.20
10314;DHT22;5202;49.138;10.090;2023-07-22T14:57:33;24.80;59.80
10314;DHT22;5202;49.138;10.090;2023-07-22T15:00:01;25.00;59.00
10314;DHT22;5202;49.138;10.090;2023-07-22T15:02:31;25.20;58.90
10314;DHT22;5202;49.138;10.090;2023-07-22T15:05:00;25.20;58.10
10314;DHT22;5202;49.138;10.090;2023-07-22T15:07:28;25.30;58.30
10314;DHT22;5202;49.138;10.090;2023-07-22T15:09:58;24.90;58.00
10314;DHT22;5202;49.138;10.090;2023-07-22T15:12:27;24.80;58.60
10314;DHT22;5202;49.138;10.090;2023-07-22T15:14:55;24.60;58.10
10314;DHT22;5202;49.138;10.090;2023-07-22T15:17:23;24.40;59.50
10314;DHT22;5202;49.138;10.090;2023-07-22T15:19:54;24.40;59.30
10314;DHT22;5202;49.138;10.090;2023-07-22T15:22:22;24.30;59.80
10314;DHT22;5202;49.138;10.090;2023-07-22T15:24:50;24.30;59.80
10314;DHT22;5202;49.138;10.090;2023-07-22T15:27:19;24.50;60.30
10314;DHT22;5202;49.138;10.090;2023-07-22T15:29:47;24.70;59.90
10314;DHT22;5202;49.138;10.090;2023-07-22T15:32:15;24.80;59.50
10314;DHT22;5202;49.138;10.090;2023-07-22T15:34:44;24.80;59.90
10314;DHT22;5202;49.138;10.090;2023-07-22T15:37:13;24.80;59.90
10314;DHT22;5202;49.138;10.090;2023-07-22T15:39:42;24.80;59.10
10314;DHT22;5202;49.138;10.090;2023-07-22T15:42:10;24.60;59.60
10314;DHT22;5202;49.138;10.090;2023-07-22T15:44:39;24.50;59.90